createdAt,value
2019-03-24T00:00:17.457Z,6.34
2019-03-24T00:01:17.475Z,6.28
2019-03-24T00:02:17.483Z,6.33
2019-03-24T00:03:17.496Z,6.22
2019-03-24T00:04:17.511Z,6.30
2019-03-24T00:05:17.526Z,6.28
2019-03-24T00:06:17.529Z,6.22
2019-03-24T00:07:17.538Z,6.30
2019-03-24T00:08:17.554Z,6.28
2019-03-24T00:09:17.566Z,6.28
2019-03-24T00:10:17.573Z,6.27
2019-03-24T00:11:17.584Z,6.28
2019-03-24T00:12:17.600Z,6.27
2019-03-24T00:13:17.611Z,6.33
2019-03-24T00:14:17.627Z,6.30
2019-03-24T00:15:25.719Z,6.27
2019-03-24T00:16:17.681Z,6.28
2019-03-24T00:17:17.653Z,6.25
2019-03-24T00:18:17.664Z,6.25
2019-03-24T00:19:17.683Z,6.31
2019-03-24T00:20:17.688Z,6.30
2019-03-24T00:21:17.700Z,6.30
2019-03-24T00:22:17.714Z,6.28
2019-03-24T00:23:17.724Z,6.30
2019-03-24T00:24:17.737Z,6.30
2019-03-24T00:25:17.748Z,6.25
2019-03-24T00:26:17.754Z,6.25
2019-03-24T00:27:17.766Z,6.19
2019-03-24T00:28:17.781Z,6.27
2019-03-24T00:29:17.790Z,6.27
2019-03-24T00:30:17.805Z,6.21
2019-03-24T00:31:17.816Z,6.15
2019-03-24T00:32:17.822Z,6.17
2019-03-24T00:33:17.841Z,6.21
2019-03-24T00:34:17.851Z,6.14
2019-03-24T00:35:17.857Z,6.15
2019-03-24T00:36:17.872Z,6.15
2019-03-24T00:37:17.881Z,6.11
2019-03-24T00:38:17.889Z,6.14
2019-03-24T00:39:17.902Z,6.08
2019-03-24T00:40:17.913Z,6.12
2019-03-24T00:41:17.926Z,6.11
2019-03-24T00:42:17.941Z,6.12
2019-03-24T00:43:17.954Z,6.06
2019-03-24T00:44:17.959Z,6.09
2019-03-24T00:45:17.982Z,6.11
2019-03-24T00:46:17.982Z,6.09
2019-03-24T00:47:17.994Z,6.22
2019-03-24T00:48:18.007Z,6.14
2019-03-24T00:49:18.021Z,6.25
2019-03-24T00:50:18.030Z,6.18
2019-03-24T00:51:18.037Z,6.25
2019-03-24T00:52:18.050Z,6.22
2019-03-24T00:53:18.060Z,6.28
2019-03-24T00:54:18.074Z,6.21
2019-03-24T00:55:18.082Z,6.25
2019-03-24T00:56:18.099Z,6.19
2019-03-24T00:57:18.105Z,6.18
2019-03-24T00:58:18.121Z,6.18
2019-03-24T00:59:18.128Z,6.25
2019-03-24T01:00:18.143Z,6.22
2019-03-24T01:01:18.155Z,6.25
2019-03-24T01:02:18.164Z,6.19
2019-03-24T01:03:18.176Z,6.12
2019-03-24T01:04:18.190Z,6.04
2019-03-24T01:05:18.196Z,6.06
2019-03-24T01:06:18.206Z,6.06
2019-03-24T01:07:18.217Z,6.11
2019-03-24T01:08:18.235Z,6.06
2019-03-24T01:09:18.239Z,6.12
2019-03-24T01:10:18.254Z,6.06
2019-03-24T01:11:18.267Z,6.03
2019-03-24T01:12:18.276Z,6.04
2019-03-24T01:13:18.294Z,6.03
2019-03-24T01:14:18.296Z,5.99
2019-03-24T01:15:18.308Z,6.00
2019-03-24T01:16:18.323Z,6.04
2019-03-24T01:17:18.332Z,6.08
2019-03-24T01:18:18.341Z,6.08
2019-03-24T01:19:18.359Z,6.04
2019-03-24T01:20:18.367Z,6.00
2019-03-24T01:21:18.375Z,6.04
2019-03-24T01:22:18.386Z,5.94
2019-03-24T01:23:18.399Z,6.04
2019-03-24T01:24:18.409Z,6.01
2019-03-24T01:25:18.422Z,6.08
2019-03-24T01:26:18.435Z,6.01
2019-03-24T01:27:18.447Z,6.06
2019-03-24T01:28:18.455Z,6.00
2019-03-24T01:29:18.471Z,6.04
2019-03-24T01:30:18.482Z,6.04
2019-03-24T01:31:18.495Z,6.11
2019-03-24T01:32:18.503Z,6.03
2019-03-24T01:33:18.511Z,6.04
2019-03-24T01:34:18.520Z,5.99
2019-03-24T01:35:18.533Z,6.03
2019-03-24T01:36:18.544Z,6.09
2019-03-24T01:37:18.557Z,6.14
2019-03-24T01:38:18.567Z,6.14
2019-03-24T01:39:18.576Z,6.01
2019-03-24T01:40:18.592Z,6.03
2019-03-24T01:41:18.603Z,6.08
2019-03-24T01:42:18.613Z,6.00
2019-03-24T01:43:18.620Z,5.99
2019-03-24T01:44:18.646Z,6.00
2019-03-24T01:45:18.645Z,5.97
2019-03-24T01:46:18.657Z,6.00
2019-03-24T01:47:18.670Z,6.00
2019-03-24T01:48:18.676Z,5.94
2019-03-24T01:49:18.692Z,5.96
2019-03-24T01:50:18.698Z,5.90
2019-03-24T01:51:18.711Z,5.91
2019-03-24T01:52:18.723Z,5.89
2019-03-24T01:53:18.732Z,5.91
2019-03-24T01:54:18.769Z,5.96
2019-03-24T01:55:18.757Z,5.90
2019-03-24T01:56:18.766Z,5.85
2019-03-24T01:57:18.776Z,5.90
2019-03-24T01:58:18.789Z,5.94
2019-03-24T01:59:18.799Z,5.83
2019-03-24T02:00:18.809Z,5.82
2019-03-24T02:01:18.825Z,5.82
2019-03-24T02:02:18.838Z,5.75
2019-03-24T02:03:18.847Z,5.79
2019-03-24T02:04:18.854Z,5.86
2019-03-24T02:05:18.868Z,5.81
2019-03-24T02:06:18.880Z,5.85
2019-03-24T02:07:18.886Z,5.81
2019-03-24T02:08:18.897Z,5.81
2019-03-24T02:09:18.912Z,5.81
2019-03-24T02:10:18.919Z,5.85
2019-03-24T02:11:18.929Z,5.82
2019-03-24T02:12:18.945Z,5.79
2019-03-24T02:13:18.957Z,5.91
2019-03-24T02:14:18.967Z,5.94
2019-03-24T02:15:18.975Z,5.94
2019-03-24T02:16:18.991Z,5.90
2019-03-24T02:17:19.002Z,5.91
2019-03-24T02:18:19.009Z,5.76
2019-03-24T02:19:19.017Z,5.90
2019-03-24T02:20:19.034Z,5.94
2019-03-24T02:21:19.046Z,5.81
2019-03-24T02:22:19.054Z,5.82
2019-03-24T02:23:19.061Z,5.83
2019-03-24T02:24:19.071Z,5.79
2019-03-24T02:25:19.082Z,5.76
2019-03-24T02:26:19.097Z,5.82
2019-03-24T02:27:19.106Z,5.79
2019-03-24T02:28:19.115Z,5.85
2019-03-24T02:29:19.125Z,5.82
2019-03-24T02:30:19.148Z,5.81
2019-03-24T02:31:19.163Z,5.82
2019-03-24T02:32:19.159Z,5.79
2019-03-24T02:33:19.170Z,5.74
2019-03-24T02:34:19.181Z,5.75
2019-03-24T02:35:19.193Z,5.71
2019-03-24T02:36:19.216Z,5.71
2019-03-24T02:37:19.218Z,5.68
2019-03-24T02:38:19.222Z,5.75
2019-03-24T02:39:19.238Z,5.67
2019-03-24T02:40:19.247Z,5.67
2019-03-24T02:41:19.269Z,5.64
2019-03-24T02:42:19.281Z,5.67
2019-03-24T02:43:19.280Z,5.64
2019-03-24T02:44:19.290Z,5.65
2019-03-24T02:45:19.297Z,5.63
2019-03-24T02:46:24.798Z,5.74
2019-03-24T02:47:19.325Z,5.68
2019-03-24T02:48:19.343Z,5.74
2019-03-24T02:49:19.344Z,5.74
2019-03-24T02:50:19.354Z,5.72
2019-03-24T02:51:19.360Z,5.68
2019-03-24T02:52:19.375Z,5.67
2019-03-24T02:53:19.385Z,5.74
2019-03-24T02:54:19.390Z,5.75
2019-03-24T02:55:19.402Z,5.74
2019-03-24T02:56:19.414Z,5.78
2019-03-24T02:57:19.430Z,5.71
2019-03-24T02:58:19.439Z,5.74
2019-03-24T02:59:19.452Z,5.67
2019-03-24T03:00:19.458Z,5.71
2019-03-24T03:01:19.475Z,5.63
2019-03-24T03:02:19.481Z,5.64
2019-03-24T03:03:19.494Z,5.67
2019-03-24T03:04:19.505Z,5.63
2019-03-24T03:05:19.517Z,5.74
2019-03-24T03:06:19.523Z,5.65
2019-03-24T03:07:19.534Z,5.67
2019-03-24T03:08:19.547Z,5.64
2019-03-24T03:09:19.565Z,5.64
2019-03-24T03:10:19.568Z,5.58
2019-03-24T03:11:19.578Z,5.68
2019-03-24T03:12:19.593Z,5.65
2019-03-24T03:13:19.597Z,5.63
2019-03-24T03:14:19.610Z,5.71
2019-03-24T03:15:19.621Z,5.71
2019-03-24T03:16:19.635Z,5.65
2019-03-24T03:17:19.643Z,5.67
2019-03-24T03:18:19.655Z,5.61
2019-03-24T03:19:19.673Z,5.74
2019-03-24T03:20:19.673Z,5.61
2019-03-24T03:21:19.685Z,5.71
2019-03-24T03:22:19.691Z,5.67
2019-03-24T03:23:19.708Z,5.74
2019-03-24T03:24:19.720Z,5.67
2019-03-24T03:25:19.732Z,5.71
2019-03-24T03:26:19.738Z,5.71
2019-03-24T03:27:19.752Z,5.64
2019-03-24T03:28:19.766Z,5.67
2019-03-24T03:29:19.774Z,5.68
2019-03-24T03:30:19.800Z,5.60
2019-03-24T03:31:19.791Z,5.67
2019-03-24T03:32:19.806Z,5.63
2019-03-24T03:33:19.822Z,5.68
2019-03-24T03:34:19.873Z,5.72
2019-03-24T03:35:19.835Z,5.64
2019-03-24T03:36:19.862Z,5.67
2019-03-24T03:37:19.870Z,5.67
2019-03-24T03:38:19.881Z,5.75
2019-03-24T03:39:19.886Z,5.58
2019-03-24T03:40:19.921Z,5.67
2019-03-24T03:41:19.961Z,5.63
2019-03-24T03:42:19.908Z,5.60
2019-03-24T03:43:19.934Z,5.65
2019-03-24T03:44:19.936Z,5.63
2019-03-24T03:45:19.941Z,5.74
2019-03-24T03:46:19.951Z,5.64
2019-03-24T03:47:19.969Z,5.60
2019-03-24T03:48:19.975Z,5.71
2019-03-24T03:49:19.984Z,5.64
2019-03-24T03:50:19.992Z,5.60
2019-03-24T03:51:20.012Z,5.68
2019-03-24T03:52:20.017Z,5.64
2019-03-24T03:53:20.028Z,5.61
2019-03-24T03:54:20.044Z,5.74
2019-03-24T03:55:20.060Z,5.68
2019-03-24T03:56:20.061Z,5.64
2019-03-24T03:57:20.075Z,5.67
2019-03-24T03:58:20.080Z,5.64
2019-03-24T03:59:20.098Z,5.63
2019-03-24T04:00:20.107Z,5.67
2019-03-24T04:01:20.109Z,5.57
2019-03-24T04:02:20.125Z,5.61
2019-03-24T04:03:20.140Z,5.58
2019-03-24T04:04:20.150Z,5.63
2019-03-24T04:05:20.156Z,5.54
2019-03-24T04:06:20.164Z,5.48
2019-03-24T04:07:20.173Z,5.45
2019-03-24T04:08:20.188Z,5.56
2019-03-24T04:09:20.200Z,5.56
2019-03-24T04:10:20.209Z,5.54
2019-03-24T04:11:20.219Z,5.65
2019-03-24T04:12:20.230Z,5.61
2019-03-24T04:13:20.252Z,5.68
2019-03-24T04:14:20.252Z,5.58
2019-03-24T04:15:20.258Z,5.68
2019-03-24T04:16:20.269Z,5.63
2019-03-24T04:17:20.286Z,5.57
2019-03-24T04:18:20.293Z,5.57
2019-03-24T04:19:20.306Z,5.54
2019-03-24T04:20:20.316Z,5.56
2019-03-24T04:21:20.323Z,5.57
2019-03-24T04:22:20.340Z,5.48
2019-03-24T04:23:20.360Z,5.42
2019-03-24T04:24:20.354Z,5.42
2019-03-24T04:25:20.362Z,5.42
2019-03-24T04:26:20.377Z,5.54
2019-03-24T04:27:20.388Z,5.56
2019-03-24T04:28:20.395Z,5.49
2019-03-24T04:29:20.406Z,5.51
2019-03-24T04:30:20.417Z,5.51
2019-03-24T04:31:20.425Z,5.43
2019-03-24T04:32:20.437Z,5.43
2019-03-24T04:33:20.447Z,5.45
2019-03-24T04:34:20.456Z,5.39
2019-03-24T04:35:20.466Z,5.46
2019-03-24T04:36:20.484Z,5.43
2019-03-24T04:37:20.490Z,5.36
2019-03-24T04:38:20.499Z,5.35
2019-03-24T04:39:20.514Z,5.35
2019-03-24T04:40:20.519Z,5.39
2019-03-24T04:41:20.530Z,5.25
2019-03-24T04:42:20.544Z,5.27
2019-03-24T04:43:20.548Z,5.27
2019-03-24T04:44:20.556Z,5.24
2019-03-24T04:45:20.569Z,5.35
2019-03-24T04:46:20.576Z,5.31
2019-03-24T04:47:20.586Z,5.38
2019-03-24T04:48:20.598Z,5.28
2019-03-24T04:49:20.611Z,5.33
2019-03-24T04:50:20.620Z,5.35
2019-03-24T04:51:20.633Z,5.33
2019-03-24T04:52:20.639Z,5.38
2019-03-24T04:53:20.928Z,5.33
2019-03-24T04:54:20.660Z,5.33
2019-03-24T04:55:20.672Z,5.33
2019-03-24T04:56:20.682Z,5.39
2019-03-24T04:57:20.691Z,5.46
2019-03-24T04:58:20.705Z,5.40
2019-03-24T04:59:20.714Z,5.40
2019-03-24T05:00:20.721Z,5.40
2019-03-24T05:01:20.734Z,5.38
2019-03-24T05:02:20.745Z,5.38
2019-03-24T05:03:20.748Z,5.39
2019-03-24T05:04:20.760Z,5.35
2019-03-24T05:05:20.774Z,5.40
2019-03-24T05:06:20.781Z,5.38
2019-03-24T05:07:20.787Z,5.38
2019-03-24T05:08:20.799Z,5.46
2019-03-24T05:09:20.808Z,5.46
2019-03-24T05:10:20.818Z,5.43
2019-03-24T05:11:20.830Z,5.40
2019-03-24T05:12:20.838Z,5.46
2019-03-24T05:13:20.849Z,5.46
2019-03-24T05:14:20.865Z,5.39
2019-03-24T05:15:20.871Z,5.43
2019-03-24T05:16:20.878Z,5.42
2019-03-24T05:17:26.916Z,5.40
2019-03-24T05:18:20.903Z,5.30
2019-03-24T05:19:20.909Z,5.43
2019-03-24T05:20:20.920Z,5.38
2019-03-24T05:21:20.933Z,5.31
2019-03-24T05:22:20.943Z,5.53
2019-03-24T05:23:20.950Z,5.53
2019-03-24T05:24:20.966Z,5.51
2019-03-24T05:25:20.975Z,5.51
2019-03-24T05:26:20.992Z,5.51
2019-03-24T05:27:20.989Z,5.51
2019-03-24T05:28:21.005Z,5.51
2019-03-24T05:29:21.015Z,5.51
2019-03-24T05:30:21.026Z,5.53
2019-03-24T05:31:21.034Z,5.49
2019-03-24T05:32:21.047Z,5.49
2019-03-24T05:33:21.056Z,5.54
2019-03-24T05:34:21.061Z,5.53
2019-03-24T05:35:21.075Z,5.46
2019-03-24T05:36:21.086Z,5.49
2019-03-24T05:37:21.093Z,5.48
2019-03-24T05:38:21.102Z,5.51
2019-03-24T05:39:21.118Z,5.53
2019-03-24T05:40:21.124Z,5.48
2019-03-24T05:41:21.138Z,5.54
2019-03-24T05:42:21.148Z,5.51
2019-03-24T05:43:21.157Z,5.54
2019-03-24T05:44:21.164Z,5.49
2019-03-24T05:45:21.180Z,5.53
2019-03-24T05:46:21.185Z,5.48
2019-03-24T05:47:21.195Z,5.46
2019-03-24T05:48:21.214Z,5.51
2019-03-24T05:49:21.223Z,5.53
2019-03-24T05:50:21.230Z,5.51
2019-03-24T05:51:21.244Z,5.53
2019-03-24T05:52:21.251Z,5.49
2019-03-24T05:53:21.262Z,5.51
2019-03-24T05:54:21.267Z,5.51
2019-03-24T05:55:21.278Z,5.51
2019-03-24T05:56:21.296Z,5.51
2019-03-24T05:57:21.299Z,5.49
2019-03-24T05:58:21.308Z,5.49
2019-03-24T05:59:21.324Z,5.53
2019-03-24T06:00:21.333Z,5.53
2019-03-24T06:01:21.340Z,5.46
2019-03-24T06:02:21.353Z,5.46
2019-03-24T06:03:21.363Z,5.38
2019-03-24T06:04:21.372Z,5.39
2019-03-24T06:05:21.381Z,5.40
2019-03-24T06:06:21.393Z,5.33
2019-03-24T06:07:21.405Z,5.31
2019-03-24T06:08:21.412Z,5.30
2019-03-24T06:09:21.434Z,5.36
2019-03-24T06:10:21.433Z,5.30
2019-03-24T06:11:21.445Z,5.33
2019-03-24T06:12:21.454Z,5.31
2019-03-24T06:13:21.462Z,5.38
2019-03-24T06:14:21.473Z,5.33
2019-03-24T06:15:21.485Z,5.33
2019-03-24T06:16:21.495Z,5.31
2019-03-24T06:17:21.514Z,5.24
2019-03-24T06:18:21.513Z,5.22
2019-03-24T06:19:21.530Z,5.27
2019-03-24T06:20:21.536Z,5.28
2019-03-24T06:21:21.544Z,5.35
2019-03-24T06:22:21.559Z,5.31
2019-03-24T06:23:21.569Z,5.36
2019-03-24T06:24:21.575Z,5.33
2019-03-24T06:25:21.597Z,5.28
2019-03-24T06:26:21.598Z,5.38
2019-03-24T06:27:21.606Z,5.31
2019-03-24T06:28:21.618Z,5.36
2019-03-24T06:29:21.631Z,5.46
2019-03-24T06:30:21.641Z,5.48
2019-03-24T06:31:21.647Z,5.57
2019-03-24T06:32:21.657Z,5.54
2019-03-24T06:33:21.670Z,5.51
2019-03-24T06:34:21.677Z,5.49
2019-03-24T06:35:21.692Z,5.48
2019-03-24T06:36:21.698Z,5.48
2019-03-24T06:37:21.712Z,5.43
2019-03-24T06:38:21.718Z,5.48
2019-03-24T06:39:21.728Z,5.49
2019-03-24T06:40:21.741Z,5.46
2019-03-24T06:41:21.750Z,5.54
2019-03-24T06:42:21.779Z,5.57
2019-03-24T06:43:21.771Z,5.61
2019-03-24T06:44:21.780Z,5.65
2019-03-24T06:45:28.284Z,5.65
2019-03-24T06:46:21.800Z,5.58
2019-03-24T06:47:21.816Z,5.61
2019-03-24T06:48:21.822Z,5.64
2019-03-24T06:49:21.831Z,5.74
2019-03-24T06:50:21.846Z,5.71
2019-03-24T06:51:21.854Z,5.63
2019-03-24T06:52:21.865Z,5.68
2019-03-24T06:53:21.872Z,5.72
2019-03-24T06:54:21.926Z,5.61
2019-03-24T06:55:21.890Z,5.74
2019-03-24T06:56:21.901Z,5.78
2019-03-24T06:57:21.915Z,5.78
2019-03-24T06:58:21.924Z,5.85
2019-03-24T06:59:21.932Z,5.90
2019-03-24T07:00:21.947Z,5.91
2019-03-24T07:01:21.957Z,6.00
2019-03-24T07:02:21.968Z,6.04
2019-03-24T07:03:21.972Z,6.12
2019-03-24T07:04:21.990Z,6.18
2019-03-24T07:05:21.995Z,6.27
2019-03-24T07:06:22.004Z,6.25
2019-03-24T07:07:22.020Z,6.40
2019-03-24T07:08:22.025Z,6.36
2019-03-24T07:09:22.036Z,6.55
2019-03-24T07:10:22.050Z,6.56
2019-03-24T07:11:22.060Z,6.58
2019-03-24T07:12:22.070Z,6.95
2019-03-24T07:13:22.080Z,7.05
2019-03-24T07:14:22.136Z,7.25
2019-03-24T07:15:22.108Z,7.45
2019-03-24T07:16:22.115Z,7.43
2019-03-24T07:17:22.121Z,7.60
2019-03-24T07:18:22.134Z,7.71
2019-03-24T07:19:22.147Z,7.79
2019-03-24T07:20:22.155Z,7.77
2019-03-24T07:21:22.167Z,7.86
2019-03-24T07:22:22.178Z,7.89
2019-03-24T07:23:22.193Z,7.90
2019-03-24T07:24:22.197Z,8.00
2019-03-24T07:25:22.212Z,8.05
2019-03-24T07:26:22.219Z,8.07
2019-03-24T07:27:22.230Z,8.18
2019-03-24T07:28:22.241Z,8.23
2019-03-24T07:29:22.257Z,8.30
2019-03-24T07:30:22.269Z,8.38
2019-03-24T07:31:22.278Z,8.40
2019-03-24T07:32:22.287Z,8.33
2019-03-24T07:33:22.300Z,8.33
2019-03-24T07:34:22.314Z,8.29
2019-03-24T07:35:22.323Z,8.30
2019-03-24T07:36:22.332Z,8.28
2019-03-24T07:37:22.346Z,8.33
2019-03-24T07:38:22.359Z,8.36
2019-03-24T07:39:22.367Z,8.23
2019-03-24T07:40:22.376Z,8.33
2019-03-24T07:41:22.394Z,8.40
2019-03-24T07:42:22.397Z,8.44
2019-03-24T07:43:22.411Z,8.40
2019-03-24T07:44:22.420Z,8.30
2019-03-24T07:45:22.432Z,8.29
2019-03-24T07:46:22.454Z,8.40
2019-03-24T07:47:22.457Z,8.53
2019-03-24T07:48:22.466Z,8.56
2019-03-24T07:49:22.479Z,8.40
2019-03-24T07:50:22.493Z,8.40
2019-03-24T07:51:22.504Z,8.58
2019-03-24T07:52:22.518Z,8.58
2019-03-24T07:53:22.526Z,8.70
2019-03-24T07:54:22.538Z,8.79
2019-03-24T07:55:22.545Z,8.94
2019-03-24T07:56:22.561Z,9.01
2019-03-24T07:57:22.581Z,9.15
2019-03-24T07:58:22.582Z,8.98
2019-03-24T07:59:22.595Z,8.79
2019-03-24T08:00:22.607Z,8.81
2019-03-24T08:01:22.615Z,8.99
2019-03-24T08:02:22.627Z,9.02
2019-03-24T08:03:22.639Z,8.83
2019-03-24T08:04:22.650Z,8.91
2019-03-24T08:05:22.663Z,8.76
2019-03-24T08:06:22.680Z,8.81
2019-03-24T08:07:22.689Z,9.01
2019-03-24T08:08:22.702Z,9.23
2019-03-24T08:09:22.715Z,9.26
2019-03-24T08:10:22.727Z,9.15
2019-03-24T08:11:22.734Z,9.40
2019-03-24T08:12:22.747Z,9.51
2019-03-24T08:13:22.759Z,9.81
2019-03-24T08:14:22.801Z,9.72
2019-03-24T08:15:22.779Z,9.84
2019-03-24T08:16:22.797Z,9.64
2019-03-24T08:17:22.803Z,9.60
2019-03-24T08:18:29.849Z,9.60
2019-03-24T08:19:22.829Z,9.78
2019-03-24T08:20:22.845Z,9.93
2019-03-24T08:21:22.856Z,9.87
2019-03-24T08:22:22.864Z,10.02
2019-03-24T08:23:22.876Z,10.01
2019-03-24T08:24:22.893Z,10.23
2019-03-24T08:25:22.901Z,9.97
2019-03-24T08:26:22.912Z,10.20
2019-03-24T08:27:22.928Z,10.17
2019-03-24T08:28:23.257Z,10.04
2019-03-24T08:29:22.953Z,9.99
2019-03-24T08:30:22.964Z,10.17
2019-03-24T08:31:22.976Z,10.17
2019-03-24T08:32:22.986Z,10.34
2019-03-24T08:33:23.002Z,10.52
2019-03-24T08:34:23.011Z,10.52
2019-03-24T08:35:23.025Z,10.47
2019-03-24T08:36:23.042Z,10.18
2019-03-24T08:37:23.050Z,10.12
2019-03-24T08:38:23.061Z,10.15
2019-03-24T08:39:23.074Z,10.01
2019-03-24T08:40:23.087Z,9.97
2019-03-24T08:41:23.099Z,10.01
2019-03-24T08:42:23.116Z,10.01
2019-03-24T08:43:23.128Z,9.83
2019-03-24T08:44:23.136Z,9.78
2019-03-24T08:45:23.151Z,10.27
2019-03-24T08:46:23.164Z,10.33
2019-03-24T08:47:23.179Z,10.59
2019-03-24T08:48:23.191Z,10.41
2019-03-24T08:49:23.200Z,10.59
2019-03-24T08:50:23.215Z,10.51
2019-03-24T08:51:23.229Z,10.33
2019-03-24T08:52:23.246Z,10.33
2019-03-24T08:53:23.258Z,10.38
2019-03-24T08:54:23.266Z,10.09
2019-03-24T08:55:23.277Z,10.08
2019-03-24T08:56:23.294Z,10.48
2019-03-24T08:57:23.306Z,10.91
2019-03-24T08:58:23.318Z,11.21
2019-03-24T08:59:23.333Z,11.00
2019-03-24T09:00:30.474Z,10.61
2019-03-24T09:01:23.361Z,10.76
2019-03-24T09:02:23.373Z,11.11
2019-03-24T09:03:23.384Z,11.15
2019-03-24T09:04:23.401Z,11.32
2019-03-24T09:05:23.407Z,11.10
2019-03-24T09:06:23.416Z,11.17
2019-03-24T09:07:23.433Z,11.19
2019-03-24T09:08:23.448Z,11.18
2019-03-24T09:09:23.459Z,11.37
2019-03-24T09:10:23.469Z,11.37
2019-03-24T09:11:31.289Z,11.02
2019-03-24T09:12:23.500Z,10.97
2019-03-24T09:13:23.513Z,11.02
2019-03-24T09:14:23.526Z,10.76
2019-03-24T09:15:23.538Z,10.94
2019-03-24T09:16:23.551Z,11.03
2019-03-24T09:17:23.583Z,11.02
2019-03-24T09:18:23.577Z,11.19
2019-03-24T09:19:23.589Z,11.33
2019-03-24T09:20:23.601Z,11.00
2019-03-24T09:21:23.621Z,11.15
2019-03-24T09:22:23.628Z,10.88
2019-03-24T09:23:23.642Z,10.91
2019-03-24T09:24:23.658Z,11.07
2019-03-24T09:25:23.704Z,11.03
2019-03-24T09:26:23.682Z,11.06
2019-03-24T09:27:23.696Z,11.09
2019-03-24T09:28:23.761Z,11.11
2019-03-24T09:29:23.727Z,11.65
2019-03-24T09:30:23.735Z,12.29
2019-03-24T09:31:23.765Z,11.99
2019-03-24T09:32:23.765Z,11.65
2019-03-24T09:33:23.778Z,11.43
2019-03-24T09:34:23.789Z,11.40
2019-03-24T09:35:23.805Z,11.44
2019-03-24T09:36:23.820Z,11.85
2019-03-24T09:37:23.835Z,11.83
2019-03-24T09:38:23.848Z,12.23
2019-03-24T09:39:23.858Z,12.27
2019-03-24T09:40:23.877Z,12.42
2019-03-24T09:41:23.896Z,11.98
2019-03-24T09:42:23.902Z,12.17
2019-03-24T09:43:23.913Z,12.24
2019-03-24T09:44:23.927Z,12.32
2019-03-24T09:45:23.946Z,12.17
2019-03-24T09:46:23.958Z,11.85
2019-03-24T09:47:23.972Z,12.65
2019-03-24T09:48:23.988Z,12.56
2019-03-24T09:49:23.998Z,12.09
2019-03-24T09:50:24.011Z,12.14
2019-03-24T09:51:24.026Z,11.88
2019-03-24T09:52:24.043Z,11.79
2019-03-24T09:53:24.059Z,11.94
2019-03-24T09:54:24.073Z,12.32
2019-03-24T09:55:24.087Z,12.60
2019-03-24T09:56:24.097Z,12.54
2019-03-24T09:57:24.113Z,12.57
2019-03-24T09:58:24.128Z,13.05
2019-03-24T09:59:24.146Z,13.41
2019-03-24T10:00:24.157Z,13.36
2019-03-24T10:01:24.170Z,13.44
2019-03-24T10:02:24.184Z,13.45
2019-03-24T10:03:24.199Z,13.71
2019-03-24T10:04:24.218Z,13.70
2019-03-24T10:05:24.232Z,13.52
2019-03-24T10:06:24.259Z,13.73
2019-03-24T10:07:24.259Z,14.14
2019-03-24T10:08:24.277Z,13.73
2019-03-24T10:09:24.292Z,13.45
2019-03-24T10:10:24.307Z,13.51
2019-03-24T10:11:24.320Z,13.66
2019-03-24T10:12:24.333Z,13.44
2019-03-24T10:13:24.350Z,13.79
2019-03-24T10:14:24.364Z,13.32
2019-03-24T10:15:24.385Z,13.14
2019-03-24T10:16:24.402Z,13.28
2019-03-24T10:17:24.412Z,12.59
2019-03-24T10:18:24.430Z,12.78
2019-03-24T10:19:24.441Z,12.75
2019-03-24T10:20:24.458Z,13.01
2019-03-24T10:21:24.470Z,13.12
2019-03-24T10:22:24.486Z,13.44
2019-03-24T10:23:24.505Z,13.64
2019-03-24T10:24:24.523Z,13.97
2019-03-24T10:25:24.533Z,13.60
2019-03-24T10:26:24.548Z,13.38
2019-03-24T10:27:24.559Z,13.17
2019-03-24T10:28:24.577Z,13.19
2019-03-24T10:29:24.596Z,13.51
2019-03-24T10:30:24.608Z,13.64
2019-03-24T10:31:24.624Z,13.97
2019-03-24T10:32:24.636Z,14.12
2019-03-24T10:33:24.659Z,14.21
2019-03-24T10:34:24.669Z,14.45
2019-03-24T10:35:24.685Z,14.70
2019-03-24T10:36:24.701Z,14.77
2019-03-24T10:37:24.730Z,14.94
2019-03-24T10:38:24.734Z,15.06
2019-03-24T10:39:24.750Z,15.25
2019-03-24T10:40:28.934Z,15.16
2019-03-24T10:41:24.780Z,15.41
2019-03-24T10:42:24.797Z,15.34
2019-03-24T10:43:24.812Z,15.19
2019-03-24T10:44:24.832Z,15.35
2019-03-24T10:45:24.847Z,15.29
2019-03-24T10:46:24.873Z,15.23
2019-03-24T10:47:24.880Z,15.44
2019-03-24T10:48:33.326Z,15.51
2019-03-24T10:49:25.415Z,15.44
2019-03-24T10:50:24.929Z,15.43
2019-03-24T10:51:24.943Z,15.32
2019-03-24T10:52:24.962Z,15.03
2019-03-24T10:53:24.975Z,14.94
2019-03-24T10:54:24.995Z,14.92
2019-03-24T10:55:25.008Z,14.92
2019-03-24T10:56:25.028Z,14.92
2019-03-24T10:57:25.043Z,15.21
2019-03-24T10:58:25.060Z,15.34
2019-03-24T10:59:25.075Z,15.47
2019-03-24T11:00:25.097Z,15.51
2019-03-24T11:01:25.109Z,15.62
2019-03-24T11:02:25.126Z,15.76
2019-03-24T11:03:25.143Z,15.75
2019-03-24T11:04:25.162Z,15.84
2019-03-24T11:05:25.184Z,16.07
2019-03-24T11:06:25.195Z,15.62
2019-03-24T11:07:25.211Z,15.56
2019-03-24T11:08:25.233Z,15.92
2019-03-24T11:09:25.328Z,16.15
2019-03-24T11:10:25.267Z,15.17
2019-03-24T11:11:25.281Z,14.72
2019-03-24T11:12:25.304Z,14.78
2019-03-24T11:13:25.320Z,14.95
2019-03-24T11:14:25.344Z,14.32
2019-03-24T11:15:25.355Z,14.89
2019-03-24T11:16:25.375Z,15.28
2019-03-24T11:17:25.390Z,15.28
2019-03-24T11:18:25.400Z,14.78
2019-03-24T11:19:35.258Z,15.29
2019-03-24T11:20:25.439Z,15.71
2019-03-24T11:21:25.459Z,15.96
2019-03-24T11:22:25.477Z,15.68
2019-03-24T11:23:25.490Z,15.46
2019-03-24T11:24:25.508Z,14.95
2019-03-24T11:25:25.522Z,14.75
2019-03-24T11:26:25.549Z,15.07
2019-03-24T11:27:25.562Z,14.98
2019-03-24T11:28:25.578Z,14.42
2019-03-24T11:29:25.597Z,14.61
2019-03-24T11:30:25.611Z,14.99
2019-03-24T11:31:25.627Z,15.19
2019-03-24T11:32:25.645Z,15.41
2019-03-24T11:33:25.667Z,15.89
2019-03-24T11:34:25.678Z,16.30
2019-03-24T11:35:25.697Z,16.09
2019-03-24T11:36:25.716Z,15.57
2019-03-24T11:37:25.732Z,14.77
2019-03-24T11:38:25.746Z,15.20
2019-03-24T11:39:25.769Z,15.75
2019-03-24T11:40:25.787Z,15.92
2019-03-24T11:41:25.800Z,16.38
2019-03-24T11:42:25.817Z,16.43
2019-03-24T11:43:25.842Z,16.46
2019-03-24T11:44:25.856Z,15.49
2019-03-24T11:45:25.875Z,15.36
2019-03-24T11:46:25.898Z,15.43
2019-03-24T11:47:26.939Z,15.64
2019-03-24T11:48:25.929Z,15.44
2019-03-24T11:49:25.942Z,15.29
2019-03-24T11:50:25.957Z,15.06
2019-03-24T11:51:25.978Z,15.21
2019-03-24T11:52:25.999Z,15.36
2019-03-24T11:53:26.012Z,14.83
2019-03-24T11:54:26.032Z,14.94
2019-03-24T11:55:26.050Z,14.94
2019-03-24T11:56:26.066Z,15.10
2019-03-24T11:57:26.081Z,15.46
2019-03-24T11:58:26.106Z,15.72
2019-03-24T11:59:26.123Z,15.97
2019-03-24T12:00:26.138Z,16.41
2019-03-24T12:01:26.157Z,16.81
2019-03-24T12:02:26.169Z,17.21
2019-03-24T12:03:26.190Z,16.43
2019-03-24T12:04:26.211Z,16.15
2019-03-24T12:05:26.227Z,15.83
2019-03-24T12:06:26.243Z,15.47
2019-03-24T12:07:26.261Z,15.69
2019-03-24T12:08:26.281Z,16.17
2019-03-24T12:09:26.300Z,16.28
2019-03-24T12:10:26.316Z,16.56
2019-03-24T12:11:26.332Z,16.97
2019-03-24T12:12:26.349Z,16.75
2019-03-24T12:13:26.375Z,15.93
2019-03-24T12:14:26.390Z,15.72
2019-03-24T12:15:26.420Z,15.41
2019-03-24T12:16:26.424Z,15.21
2019-03-24T12:17:26.447Z,15.19
2019-03-24T12:18:26.458Z,15.51
2019-03-24T12:19:26.480Z,15.89
2019-03-24T12:20:26.497Z,16.07
2019-03-24T12:21:26.514Z,15.84
2019-03-24T12:22:26.532Z,15.83
2019-03-24T12:23:26.555Z,15.87
2019-03-24T12:24:26.576Z,15.76
2019-03-24T12:25:26.592Z,15.09
2019-03-24T12:26:26.609Z,15.28
2019-03-24T12:27:26.626Z,15.25
2019-03-24T12:28:26.644Z,15.65
2019-03-24T12:29:26.662Z,15.84
2019-03-24T12:30:26.678Z,16.42
2019-03-24T12:31:26.696Z,16.38
2019-03-24T12:32:26.718Z,16.01
2019-03-24T12:33:26.736Z,15.76
2019-03-24T12:34:26.751Z,15.49
2019-03-24T12:35:26.777Z,15.60
2019-03-24T12:36:26.798Z,15.87
2019-03-24T12:37:26.813Z,15.39
2019-03-24T12:38:26.824Z,16.11
2019-03-24T12:39:26.848Z,15.03
2019-03-24T12:40:26.865Z,14.95
2019-03-24T12:41:26.880Z,15.11
2019-03-24T12:42:26.899Z,14.57
2019-03-24T12:43:26.916Z,14.81
2019-03-24T12:44:26.935Z,15.38
2019-03-24T12:45:26.983Z,15.87
2019-03-24T12:46:26.970Z,15.84
2019-03-24T12:47:26.989Z,15.84
2019-03-24T12:48:27.118Z,15.53
2019-03-24T12:49:27.025Z,15.71
2019-03-24T12:50:31.626Z,15.20
2019-03-24T12:51:27.069Z,15.86
2019-03-24T12:52:27.079Z,15.50
2019-03-24T12:53:27.102Z,15.89
2019-03-24T12:54:27.115Z,15.16
2019-03-24T12:55:27.134Z,15.35
2019-03-24T12:56:27.152Z,15.17
2019-03-24T12:57:27.171Z,15.54
2019-03-24T12:58:27.193Z,14.75
2019-03-24T12:59:27.207Z,14.95
2019-03-24T13:00:27.225Z,15.28
2019-03-24T13:01:27.243Z,15.41
2019-03-24T13:02:27.269Z,15.16
2019-03-24T13:03:27.278Z,15.56
2019-03-24T13:04:27.301Z,15.80
2019-03-24T13:05:27.319Z,15.51
2019-03-24T13:06:27.333Z,15.65
2019-03-24T13:07:27.358Z,16.28
2019-03-24T13:08:27.370Z,16.43
2019-03-24T13:09:27.389Z,16.04